Accueil
METAR-TAF:

METAR-TAF

Aéroports :

Aéroport international de Nadi

Nadi, Fidji

latitude: 17-45S, longitude: 177-27E, altitude: 13 m

Observation

Le bulletin a été fait il y a 58 minutes, à 10:00 UTC
Vent 8 kt de sud-ouest
Température 24°C
Humidité 78%
Pression 1014 hPa
Visibilité 10 km ou plus
Nuages épars à une hauteur de 2400 ft
Nuages épars à une hauteur de 4800 ft
faibles averses de pluie

METAR: NFFN 221000Z 22008KT 9999 -SHRA SCT024 SCT048 24/20 Q1014 NOSIG

Heure: 22:58 (10:58 UTC)

Prévision

Le bulletin a été fait il y a 5 heures et 50 minutes, à 05:08 UTC
Prévision valable du 22 à 06 UTC au 23 à 06 UTC
Vent 3 kt de direction variable
Visibilité 10 km ou plus
Nuages épars à une hauteur de 2500 ft
Evoluant progressivement
du 22 à 21 UTC au 22 à 23 UTC
Vent 10 kt de ouest

TAF: NFFN 220508Z 2206/2306 VRB03KT 9999 SCT025 BECMG 2221/2223 27010KT

Observations et prévisions météorologiques de plus de 4000 aéroports (messages METAR et TAF).

Les stations disponibles sont représentées par des disques jaunes et rouges sur la carte.

Passer la souris dessus pour voir le nom de la station.

Cliquer dessus pour voir les observations et prévisions météorologiques.

Pour changer de carte: cliquez sur les boutons verts avec une croix noire pour zoomer, sur le bouton vert avec un tiret pour effectuer un zoom arrière, ou sur les flèches vertes pour les cartes adjacentes.


METAR-TAF: